YBMA

Details ICAO YBMA (ISA)
Name Mount Isa
Region Australia
Timezone Australia/Brisbane (UTC+10.0)
Plans Departing 531
Arriving 612
Stats Elevation 1,121 ft / 342 m (AMSL)
Location -20.666400° 139.488000°
Runways 1
Magnetic Variation 5.590° E
Sunrise 2020-01-28 20:23:55 UTC / 2020-01-29 06:23:55 Local
Sunset 2020-01-29 09:28:26 UTC / 2020-01-29 19:28:26 Local
Advertisement - Login to hide

Runways

ID Width Length Bearing (true/mag) Surface Threshold Overrun Markings Lighting
16 148 ft / 45 m 8,859 ft / 2,700 m 167.80° / 162.21° ASPHALT 210 ft / 64 m 79 ft / 24 m APP EDGE THRESHOLD
34 148 ft / 45 m 8,859 ft / 2,700 m 347.80° / 342.21° ASPHALT 213 ft / 65 m 49 ft / 15 m APP EDGE THRESHOLD

Map

Weather


0- 5 10 15 20 25 30 35+ Temperature / °C

Clouds and Precipitation
Forecast for 2020-01-29 06:00 UTC. Updated 4 hours ago

Ground ~20,000 ft ~40,000 ft Winds

METAR

YBMA 290735Z AUTO 06012KT 9999 -SHRA BKN016 BKN039 OVC080 27/26 Q1004

TAF

TAF YBMA 290523Z 2906/2918 06014KT 9999 -SHRA BKN011 BKN020 FM291000 03017KT 8000 -SHRA BKN010 OVC020 TEMPO 2906/2918 1000 SHRA BKN004 PROB30 TEMPO 2906/2918 VRB20G40KT 0500 TSRA BKN002 SCT020CB

Frequencies

Unicom 126.50 MHz CTAF
Warning: Do not use this data for real-world aviation or navigation. No guarantee of current accuracy is given.